createdAt,value
2023-02-03T00:00:16.947Z,100647.33
2023-02-03T00:03:05.190Z,100644.23
2023-02-03T00:05:35.527Z,100649.33
2023-02-03T00:08:05.617Z,100656.27
2023-02-03T00:10:38.995Z,100648.05
2023-02-03T00:13:08.132Z,100647.86
2023-02-03T00:15:36.169Z,100644.92
2023-02-03T00:18:04.195Z,100645.94
2023-02-03T00:20:32.962Z,100643.70
2023-02-03T00:23:09.586Z,100638.55
2023-02-03T00:25:38.471Z,100642.73
2023-02-03T00:28:07.067Z,100654.15
2023-02-03T00:30:36.269Z,100659.94
2023-02-03T00:33:05.028Z,100665.57
2023-02-03T00:35:32.968Z,100661.99
2023-02-03T00:38:00.904Z,100662.55
2023-02-03T00:40:30.074Z,100661.91
2023-02-03T00:42:58.087Z,100661.77
2023-02-03T00:45:27.470Z,100666.34
2023-02-03T00:47:55.383Z,100665.98
2023-02-03T00:50:23.339Z,100667.52
2023-02-03T00:52:51.346Z,100668.89
2023-02-03T00:55:19.214Z,100672.77
2023-02-03T00:57:47.121Z,100676.19
2023-02-03T01:00:15.643Z,100679.22
2023-02-03T01:02:43.577Z,100676.49
2023-02-03T01:05:12.244Z,100672.58
2023-02-03T01:07:40.159Z,100674.46
2023-02-03T01:10:09.017Z,100677.20
2023-02-03T01:12:36.950Z,100675.84
2023-02-03T01:15:05.406Z,100679.23
2023-02-03T01:17:33.508Z,100681.08
2023-02-03T01:20:01.760Z,100683.45
2023-02-03T01:22:30.861Z,100682.93
2023-02-03T01:24:58.951Z,100684.27
2023-02-03T01:27:27.026Z,100681.49
2023-02-03T01:29:57.272Z,100680.10
2023-02-03T01:32:25.412Z,100678.40
2023-02-03T01:34:53.341Z,100675.30
2023-02-03T01:37:21.252Z,100669.00
2023-02-03T01:39:49.647Z,100669.34
2023-02-03T01:42:17.545Z,100665.38
2023-02-03T01:44:49.557Z,100664.34
2023-02-03T01:47:26.235Z,100659.71
2023-02-03T01:50:03.319Z,100662.43
2023-02-03T01:52:32.618Z,100664.62
2023-02-03T01:55:03.994Z,100662.40
2023-02-03T01:57:41.788Z,100654.56
2023-02-03T02:00:10.938Z,100654.36
2023-02-03T02:02:45.072Z,100657.25
2023-02-03T02:05:25.612Z,100660.67
2023-02-03T02:07:55.030Z,100661.88
2023-02-03T02:10:23.207Z,100666.30
2023-02-03T02:12:51.849Z,100666.45
2023-02-03T02:15:24.641Z,100666.21
2023-02-03T02:18:23.982Z,100659.68
2023-02-03T02:20:55.112Z,100655.59
2023-02-03T02:23:55.689Z,100646.70
2023-02-03T02:26:38.825Z,100645.97
2023-02-03T02:29:40.141Z,100645.61
2023-02-03T02:32:34.282Z,100647.31
2023-02-03T02:35:24.903Z,100643.71
2023-02-03T02:38:02.890Z,100650.89
2023-02-03T02:40:42.516Z,100652.09
2023-02-03T02:43:19.714Z,100649.49
2023-02-03T02:45:54.203Z,100648.26
2023-02-03T02:48:43.833Z,100643.62
2023-02-03T02:51:15.709Z,100633.36
2023-02-03T02:53:58.303Z,100639.01
2023-02-03T02:56:28.776Z,100639.81
2023-02-03T02:58:58.248Z,100644.09
2023-02-03T03:01:26.842Z,100644.41
2023-02-03T03:03:54.817Z,100637.58
2023-02-03T03:06:28.803Z,100635.65
2023-02-03T03:09:02.513Z,100635.77
2023-02-03T03:11:37.840Z,100641.83
2023-02-03T03:14:07.970Z,100638.67
2023-02-03T03:16:39.032Z,100643.02
2023-02-03T03:19:11.678Z,100641.25
2023-02-03T03:22:06.345Z,100638.39
2023-02-03T03:24:41.818Z,100643.50
2023-02-03T03:27:18.739Z,100643.84
2023-02-03T03:30:05.437Z,100649.49
2023-02-03T03:32:34.079Z,100646.49
2023-02-03T03:35:03.493Z,100644.82
2023-02-03T03:37:36.092Z,100646.26
2023-02-03T03:40:15.941Z,100644.01
2023-02-03T03:43:01.413Z,100643.83
2023-02-03T03:45:38.292Z,100632.27
2023-02-03T03:48:13.215Z,100628.65
2023-02-03T03:50:47.517Z,100624.73
2023-02-03T03:53:17.402Z,100621.67
2023-02-03T03:55:49.839Z,100622.56
2023-02-03T03:58:24.931Z,100623.60
2023-02-03T04:00:56.497Z,100627.19
2023-02-03T04:03:35.523Z,100626.34
2023-02-03T04:06:04.075Z,100623.43
2023-02-03T04:08:32.017Z,100619.18
2023-02-03T04:10:59.925Z,100623.08
2023-02-03T04:13:27.854Z,100625.09
2023-02-03T04:15:55.843Z,100626.86
2023-02-03T04:18:23.810Z,100626.59
2023-02-03T04:20:51.741Z,100626.00
2023-02-03T04:23:19.686Z,100630.55
2023-02-03T04:25:47.630Z,100630.99
2023-02-03T04:28:15.888Z,100629.38
2023-02-03T04:30:43.818Z,100626.38
2023-02-03T04:33:11.799Z,100626.08
2023-02-03T04:35:39.726Z,100623.58
2023-02-03T04:38:07.662Z,100624.98
2023-02-03T04:40:35.666Z,100630.14
2023-02-03T04:43:08.050Z,100629.38
2023-02-03T04:45:35.993Z,100632.50
2023-02-03T04:48:05.027Z,100629.67
2023-02-03T04:50:32.987Z,100627.91
2023-02-03T04:53:01.391Z,100630.18
2023-02-03T04:55:29.330Z,100627.05
2023-02-03T04:57:59.215Z,100624.98
2023-02-03T05:00:29.061Z,100624.23
2023-02-03T05:02:57.313Z,100622.14
2023-02-03T05:05:25.564Z,100621.89
2023-02-03T05:07:53.510Z,100616.38
2023-02-03T05:17:57.313Z,100599.67
2023-02-03T05:20:25.539Z,100596.94
2023-02-03T05:22:53.673Z,100597.69
2023-02-03T05:25:21.526Z,100601.38
2023-02-03T05:27:49.845Z,100603.84
2023-02-03T05:30:18.294Z,100601.54
2023-02-03T05:32:46.136Z,100601.86
2023-02-03T05:35:13.971Z,100599.73
2023-02-03T05:37:44.771Z,100603.23
2023-02-03T05:40:32.847Z,100604.00
2023-02-03T05:43:00.896Z,100595.44
2023-02-03T05:45:29.029Z,100590.81
2023-02-03T05:47:57.335Z,100586.39
2023-02-03T05:50:27.258Z,100587.57
2023-02-03T05:52:55.556Z,100586.89
2023-02-03T05:55:24.924Z,100585.19
2023-02-03T05:57:54.309Z,100584.95
2023-02-03T06:00:23.359Z,100583.20
2023-02-03T06:02:56.087Z,100581.63
2023-02-03T06:05:25.349Z,100580.36
2023-02-03T06:07:53.242Z,100581.14
2023-02-03T06:10:21.997Z,100580.55
2023-02-03T06:12:50.140Z,100580.46
2023-02-03T06:15:18.006Z,100582.44
2023-02-03T06:17:48.389Z,100580.34
2023-02-03T06:20:18.737Z,100584.04
2023-02-03T06:22:46.686Z,100577.92
2023-02-03T06:25:14.653Z,100573.02
2023-02-03T06:27:42.641Z,100575.73
2023-02-03T06:30:11.644Z,100566.91
2023-02-03T06:32:39.554Z,100566.23
2023-02-03T06:35:08.165Z,100569.14
2023-02-03T06:37:36.449Z,100565.60
2023-02-03T06:40:05.142Z,100554.91
2023-02-03T06:42:33.491Z,100548.45
2023-02-03T06:45:01.393Z,100538.80
2023-02-03T06:47:29.431Z,100529.35
2023-02-03T06:49:57.377Z,100529.73
2023-02-03T06:52:25.933Z,100524.55
2023-02-03T06:54:53.821Z,100514.58
2023-02-03T06:57:21.647Z,100517.20
2023-02-03T06:59:49.609Z,100513.08
2023-02-03T07:02:17.548Z,100508.09
2023-02-03T07:04:45.538Z,100504.98
2023-02-03T07:07:13.372Z,100496.30
2023-02-03T07:09:41.311Z,100490.65
2023-02-03T07:12:10.054Z,100489.41
2023-02-03T07:14:39.503Z,100485.64
2023-02-03T07:17:07.500Z,100484.73
2023-02-03T07:19:35.318Z,100488.16
2023-02-03T07:22:03.208Z,100483.95
2023-02-03T07:24:31.041Z,100477.73
2023-02-03T07:26:58.968Z,100476.05
2023-02-03T07:29:26.774Z,100473.02
2023-02-03T07:31:54.795Z,100471.48
2023-02-03T07:34:23.040Z,100468.27
2023-02-03T07:36:50.867Z,100463.90
2023-02-03T07:39:18.692Z,100463.13
2023-02-03T07:41:46.716Z,100457.79
2023-02-03T07:44:15.152Z,100456.86
2023-02-03T07:46:45.104Z,100452.03
2023-02-03T07:49:13.781Z,100444.60
2023-02-03T07:51:41.612Z,100435.70
2023-02-03T07:54:09.479Z,100429.53
2023-02-03T07:56:37.478Z,100420.94
2023-02-03T07:59:05.386Z,100414.77
2023-02-03T08:01:34.297Z,100407.72
2023-02-03T08:04:05.509Z,100406.97
2023-02-03T08:06:33.481Z,100401.06
2023-02-03T08:09:01.418Z,100396.34
2023-02-03T08:11:29.331Z,100392.34
2023-02-03T08:13:57.168Z,100389.02
2023-02-03T08:16:25.102Z,100385.52
2023-02-03T08:18:53.406Z,100380.47
2023-02-03T08:21:21.331Z,100378.98
2023-02-03T08:23:49.264Z,100376.84
2023-02-03T08:26:17.407Z,100373.63
2023-02-03T08:28:50.295Z,100375.35
2023-02-03T08:31:18.684Z,100375.04
2023-02-03T08:36:32.213Z,100370.53
2023-02-03T08:39:00.386Z,100370.95
2023-02-03T08:41:28.560Z,100367.11
2023-02-03T08:43:56.651Z,100360.36
2023-02-03T08:46:24.610Z,100354.97
2023-02-03T08:48:56.509Z,100351.44
2023-02-03T08:51:24.997Z,100350.15
2023-02-03T08:53:53.036Z,100345.12
2023-02-03T08:56:21.393Z,100342.80
2023-02-03T08:58:49.374Z,100337.42
2023-02-03T09:01:17.375Z,100331.02
2023-02-03T09:03:45.439Z,100324.77
2023-02-03T09:06:16.815Z,100315.44
2023-02-03T09:08:46.415Z,100308.14
2023-02-03T09:11:17.641Z,100304.20
2023-02-03T09:13:46.257Z,100299.78
2023-02-03T09:16:19.660Z,100294.33
2023-02-03T09:18:48.006Z,100288.88
2023-02-03T09:21:31.626Z,100290.10
2023-02-03T09:24:02.771Z,100287.91
2023-02-03T09:26:31.331Z,100294.75
2023-02-03T09:28:59.633Z,100293.05
2023-02-03T09:31:27.700Z,100286.05
2023-02-03T09:33:55.790Z,100277.34
2023-02-03T09:36:23.706Z,100267.46
2023-02-03T09:38:51.676Z,100257.06
2023-02-03T09:41:25.722Z,100256.06
2023-02-03T09:44:02.819Z,100250.27
2023-02-03T09:46:37.940Z,100244.80
2023-02-03T09:49:37.314Z,100236.80
2023-02-03T09:52:18.010Z,100231.67
2023-02-03T09:55:33.595Z,100225.01
2023-02-03T09:58:10.434Z,100216.30
2023-02-03T10:00:50.076Z,100209.65
2023-02-03T10:03:48.001Z,100194.13
2023-02-03T10:06:38.753Z,100186.10
2023-02-03T10:09:06.720Z,100182.52
2023-02-03T10:11:56.929Z,100183.38
2023-02-03T10:14:49.971Z,100172.45
2023-02-03T10:17:30.764Z,100165.10
2023-02-03T10:20:04.569Z,100159.29
2023-02-03T10:22:38.251Z,100151.59
2023-02-03T10:25:25.285Z,100144.43
2023-02-03T10:27:58.764Z,100134.36
2023-02-03T10:30:32.027Z,100125.30
2023-02-03T10:33:10.464Z,100119.66
2023-02-03T10:35:52.380Z,100114.36
2023-02-03T10:38:47.468Z,100105.81
2023-02-03T10:41:18.067Z,100097.60
2023-02-03T10:43:47.642Z,100091.59
2023-02-03T10:46:17.778Z,100084.73
2023-02-03T10:48:45.896Z,100072.91
2023-02-03T10:51:26.472Z,100064.39
2023-02-03T10:53:54.733Z,100056.71
2023-02-03T10:56:29.970Z,100044.08
2023-02-03T10:59:00.302Z,100040.67
2023-02-03T11:01:41.605Z,100029.77
2023-02-03T11:04:28.893Z,100018.34
2023-02-03T11:07:02.889Z,100005.20
2023-02-03T11:09:41.024Z,99997.67
2023-02-03T11:12:17.019Z,99983.95
2023-02-03T11:14:52.095Z,99975.18
2023-02-03T11:17:30.140Z,99963.34
2023-02-03T11:20:13.054Z,99949.64
2023-02-03T11:22:43.365Z,99939.54
2023-02-03T11:25:22.903Z,99928.56
2023-02-03T11:27:51.357Z,99922.55
2023-02-03T11:30:24.854Z,99916.55
2023-02-03T11:32:53.861Z,99907.50
2023-02-03T11:35:25.049Z,99896.41
2023-02-03T11:37:58.882Z,99886.84
2023-02-03T11:40:34.350Z,99878.96
2023-02-03T11:43:16.762Z,99877.25
2023-02-03T11:45:53.333Z,99874.81
2023-02-03T11:48:55.649Z,99867.60
2023-02-03T11:51:34.363Z,99857.86
2023-02-03T11:54:40.294Z,99844.39
2023-02-03T11:57:30.615Z,99830.69
2023-02-03T12:00:15.898Z,99820.77
2023-02-03T12:02:54.011Z,99814.23
2023-02-03T12:06:00.966Z,99807.91
2023-02-03T12:08:40.995Z,99799.46
2023-02-03T12:11:24.657Z,99798.36
2023-02-03T12:14:31.208Z,99794.02
2023-02-03T12:17:28.972Z,99785.58
2023-02-03T12:20:14.450Z,99780.00
2023-02-03T12:22:57.782Z,99768.94
2023-02-03T12:25:50.943Z,99763.65
2023-02-03T12:28:39.987Z,99768.28
2023-02-03T12:31:16.179Z,99760.27
2023-02-03T12:33:52.247Z,99755.20
2023-02-03T12:36:50.399Z,99750.40
2023-02-03T12:39:26.471Z,99748.71
2023-02-03T12:42:04.677Z,99746.90
2023-02-03T12:44:40.756Z,99733.01
2023-02-03T12:47:27.128Z,99723.42
2023-02-03T12:49:59.698Z,99717.73
2023-02-03T12:52:39.140Z,99716.13
2023-02-03T12:55:27.493Z,99706.99
2023-02-03T12:58:37.233Z,99691.71
2023-02-03T13:01:31.435Z,99678.94
2023-02-03T13:04:16.279Z,99665.36
2023-02-03T13:06:47.028Z,99646.20
2023-02-03T13:09:32.931Z,99631.26
2023-02-03T13:12:08.356Z,99625.86
2023-02-03T13:14:45.431Z,99619.09
2023-02-03T13:17:26.606Z,99610.76
2023-02-03T13:20:03.105Z,99603.16
2023-02-03T13:22:31.142Z,99592.86
2023-02-03T13:25:26.864Z,99586.02
2023-02-03T13:28:11.597Z,99574.17
2023-02-03T13:30:55.111Z,99561.82
2023-02-03T13:33:23.127Z,99551.11
2023-02-03T13:36:09.954Z,99542.82
2023-02-03T13:38:51.643Z,99536.09
2023-02-03T13:41:34.957Z,99525.92
2023-02-03T13:44:04.202Z,99516.81
2023-02-03T13:46:35.912Z,99514.03
2023-02-03T13:49:06.367Z,99505.91
2023-02-03T13:51:46.202Z,99500.36
2023-02-03T13:54:27.959Z,99493.96
2023-02-03T13:57:01.681Z,99485.05
2023-02-03T13:59:43.166Z,99481.54
2023-02-03T14:02:20.213Z,99477.81
2023-02-03T14:04:48.435Z,99472.05
2023-02-03T14:07:41.482Z,99468.31
2023-02-03T14:10:12.423Z,99459.29
2023-02-03T14:12:50.120Z,99458.80
2023-02-03T14:15:23.153Z,99449.48
2023-02-03T14:17:51.088Z,99445.43
2023-02-03T14:20:28.273Z,99435.45
2023-02-03T14:23:06.789Z,99426.81
2023-02-03T14:25:42.419Z,99423.10
2023-02-03T14:28:24.312Z,99416.31
2023-02-03T14:31:05.332Z,99409.88
2023-02-03T14:33:48.921Z,99404.92
2023-02-03T14:36:35.882Z,99395.58
2023-02-03T14:39:25.540Z,99390.35
2023-02-03T14:42:09.453Z,99386.95
2023-02-03T14:44:40.497Z,99380.45
2023-02-03T14:47:24.043Z,99375.67
2023-02-03T14:50:13.967Z,99366.83
2023-02-03T14:52:54.165Z,99363.78
2023-02-03T14:55:35.568Z,99359.73
2023-02-03T14:58:14.708Z,99356.84
2023-02-03T15:00:43.270Z,99347.81
2023-02-03T15:03:11.380Z,99343.08
2023-02-03T15:05:48.355Z,99336.15
2023-02-03T15:08:49.069Z,99331.09
2023-02-03T15:11:32.088Z,99324.98
2023-02-03T15:14:19.720Z,99318.17
2023-02-03T15:16:53.508Z,99316.98
2023-02-03T15:19:25.778Z,99310.55
2023-02-03T15:21:54.363Z,99304.62
2023-02-03T15:24:24.413Z,99300.77
2023-02-03T15:26:55.107Z,99300.79
2023-02-03T15:29:33.024Z,99297.04
2023-02-03T15:32:13.140Z,99288.89
2023-02-03T15:34:49.557Z,99286.50
2023-02-03T15:37:18.122Z,99283.61
2023-02-03T15:39:55.939Z,99280.74
2023-02-03T15:42:38.838Z,99276.19
2023-02-03T15:45:31.095Z,99271.96
2023-02-03T15:48:18.129Z,99264.02
2023-02-03T15:50:55.476Z,99261.45
2023-02-03T15:53:46.820Z,99259.06
2023-02-03T15:56:24.779Z,99258.21
2023-02-03T15:58:53.611Z,99258.55
2023-02-03T16:01:26.843Z,99255.33
2023-02-03T16:03:57.267Z,99250.91
2023-02-03T16:06:28.054Z,99245.80
2023-02-03T16:08:58.202Z,99250.05
2023-02-03T16:11:44.352Z,99246.14
2023-02-03T16:14:32.738Z,99243.08
2023-02-03T16:17:05.462Z,99239.34
2023-02-03T16:19:40.390Z,99238.34
2023-02-03T16:22:28.159Z,99236.98
2023-02-03T16:24:56.732Z,99230.36
2023-02-03T16:27:27.872Z,99223.73
2023-02-03T16:30:25.150Z,99222.70
2023-02-03T16:33:24.237Z,99220.14
2023-02-03T16:36:10.865Z,99217.11
2023-02-03T16:38:57.739Z,99209.64
2023-02-03T16:41:44.559Z,99209.14
2023-02-03T16:44:31.269Z,99207.09
2023-02-03T16:47:17.891Z,99199.78
2023-02-03T16:50:04.678Z,99202.48
2023-02-03T16:52:32.991Z,99195.49
2023-02-03T16:55:01.028Z,99197.35
2023-02-03T16:57:28.931Z,99197.19
2023-02-03T16:59:56.957Z,99189.84
2023-02-03T17:02:25.463Z,99188.15
2023-02-03T17:04:53.763Z,99187.98
2023-02-03T17:07:21.667Z,99190.52
2023-02-03T17:09:49.640Z,99190.48
2023-02-03T17:12:17.620Z,99189.59
2023-02-03T17:14:45.523Z,99193.14
2023-02-03T17:17:13.557Z,99194.37
2023-02-03T17:19:42.037Z,99197.94
2023-02-03T17:22:10.024Z,99197.93
2023-02-03T17:24:37.977Z,99197.77
2023-02-03T17:27:05.944Z,99196.94
2023-02-03T17:29:34.115Z,99200.32
2023-02-03T17:32:02.391Z,99198.79
2023-02-03T17:34:30.419Z,99198.59
2023-02-03T17:36:58.558Z,99200.77
2023-02-03T17:55:43.139Z,99186.88
2023-02-03T17:58:11.467Z,99187.56
2023-02-03T18:00:39.692Z,99188.58
2023-02-03T18:03:07.664Z,99187.23
2023-02-03T18:05:37.369Z,99182.98
2023-02-03T18:08:16.213Z,99185.86
2023-02-03T18:10:45.222Z,99192.45
2023-02-03T18:13:13.230Z,99199.94
2023-02-03T18:15:41.259Z,99205.68
2023-02-03T18:18:09.460Z,99206.34
2023-02-03T18:20:37.572Z,99204.44
2023-02-03T18:23:05.671Z,99204.42
2023-02-03T18:25:35.786Z,99202.39
2023-02-03T18:28:03.994Z,99206.85
2023-02-03T18:30:32.503Z,99206.87
2023-02-03T18:33:02.178Z,99208.22
2023-02-03T18:35:30.459Z,99212.98
2023-02-03T18:37:59.006Z,99215.70
2023-02-03T18:40:27.134Z,99220.42
2023-02-03T18:42:58.536Z,99219.89
2023-02-03T18:45:27.359Z,99220.56
2023-02-03T18:47:55.811Z,99227.67
2023-02-03T18:50:23.988Z,99229.42
2023-02-03T18:52:55.896Z,99226.36
2023-02-03T18:55:24.451Z,99227.88
2023-02-03T18:57:52.450Z,99231.62
2023-02-03T19:00:21.287Z,99234.31
2023-02-03T19:02:50.455Z,99233.11
2023-02-03T19:05:19.267Z,99233.64
2023-02-03T19:07:47.985Z,99227.86
2023-02-03T19:10:17.570Z,99234.13
2023-02-03T19:12:45.940Z,99235.15
2023-02-03T19:15:16.520Z,99248.42
2023-02-03T19:17:44.450Z,99249.63
2023-02-03T19:20:12.989Z,99251.48
2023-02-03T19:22:41.104Z,99255.57
2023-02-03T19:25:09.176Z,99258.96
2023-02-03T19:27:37.369Z,99257.77
2023-02-03T19:30:06.164Z,99261.98
2023-02-03T19:32:34.319Z,99267.91
2023-02-03T19:35:02.497Z,99267.81
2023-02-03T19:37:30.553Z,99264.80
2023-02-03T19:39:58.651Z,99266.19
2023-02-03T19:42:26.807Z,99264.64
2023-02-03T19:44:56.816Z,99263.44
2023-02-03T19:47:25.372Z,99266.83
2023-02-03T19:49:53.530Z,99266.15
2023-02-03T19:52:21.548Z,99264.42
2023-02-03T19:54:49.760Z,99264.38
2023-02-03T19:57:18.001Z,99262.67
2023-02-03T19:59:46.064Z,99260.14
2023-02-03T20:02:14.973Z,99255.55
2023-02-03T20:04:44.295Z,99259.28
2023-02-03T20:07:14.352Z,99258.61
2023-02-03T20:09:43.163Z,99265.07
2023-02-03T20:12:12.278Z,99274.09
2023-02-03T20:14:40.439Z,99280.24
2023-02-03T20:17:08.709Z,99289.09
2023-02-03T20:19:37.030Z,99289.59
2023-02-03T20:22:05.052Z,99283.11
2023-02-03T20:24:33.034Z,99279.00
2023-02-03T20:27:01.301Z,99274.58
2023-02-03T20:29:29.300Z,99285.50
2023-02-03T20:31:58.848Z,99290.08
2023-02-03T20:34:29.739Z,99293.81
2023-02-03T20:36:59.064Z,99295.30
2023-02-03T20:39:28.305Z,99292.73
2023-02-03T20:41:56.379Z,99299.00
2023-02-03T20:44:24.366Z,99300.92
2023-02-03T20:46:56.168Z,99304.49
2023-02-03T20:49:24.274Z,99308.58
2023-02-03T20:51:52.395Z,99312.30
2023-02-03T20:54:22.421Z,99316.54
2023-02-03T20:56:50.438Z,99316.83
2023-02-03T20:59:19.795Z,99309.84
2023-02-03T21:01:48.572Z,99292.83
2023-02-03T21:04:37.707Z,99285.67
2023-02-03T21:07:18.287Z,99299.92
2023-02-03T21:09:46.339Z,99321.35
2023-02-03T21:12:15.228Z,99335.15
2023-02-03T21:14:45.026Z,99344.83
2023-02-03T21:17:26.522Z,99344.82
2023-02-03T21:19:55.422Z,99347.69
2023-02-03T21:22:30.403Z,99350.73
2023-02-03T21:25:01.445Z,99351.27
2023-02-03T21:27:34.890Z,99354.86
2023-02-03T21:30:23.063Z,99356.86
2023-02-03T21:32:51.094Z,99362.63
2023-02-03T21:35:23.808Z,99367.38
2023-02-03T21:38:01.957Z,99371.64
2023-02-03T21:40:33.320Z,99369.27
2023-02-03T21:43:02.435Z,99365.00
2023-02-03T21:45:38.033Z,99368.89
2023-02-03T21:48:27.780Z,99381.50
2023-02-03T21:51:00.155Z,99393.45
2023-02-03T21:53:33.411Z,99399.38
2023-02-03T21:56:27.118Z,99403.11
2023-02-03T21:58:58.927Z,99400.70
2023-02-03T22:01:36.758Z,99399.34
2023-02-03T22:04:06.662Z,99397.27
2023-02-03T22:06:34.627Z,99393.70
2023-02-03T22:09:02.651Z,99397.33
2023-02-03T22:11:30.974Z,99394.11
2023-02-03T22:13:59.798Z,99393.42
2023-02-03T22:16:29.307Z,99393.78
2023-02-03T22:18:57.434Z,99397.23
2023-02-03T22:21:25.511Z,99406.58
2023-02-03T22:23:53.550Z,99420.20
2023-02-03T22:26:22.682Z,99428.88
2023-02-03T22:28:51.083Z,99432.30
2023-02-03T22:31:20.067Z,99432.48
2023-02-03T22:33:48.937Z,99426.67
2023-02-03T22:36:17.266Z,99428.89
2023-02-03T22:38:45.308Z,99432.48
2023-02-03T22:41:13.674Z,99435.58
2023-02-03T22:43:42.243Z,99444.08
2023-02-03T22:46:10.446Z,99446.98
2023-02-03T22:48:38.596Z,99448.36
2023-02-03T22:51:06.772Z,99451.74
2023-02-03T22:53:35.056Z,99451.71
2023-02-03T22:56:03.318Z,99454.43
2023-02-03T22:58:31.391Z,99455.11
2023-02-03T23:00:59.461Z,99455.63
2023-02-03T23:03:27.758Z,99462.42
2023-02-03T23:05:56.626Z,99466.84
2023-02-03T23:08:25.216Z,99470.79
2023-02-03T23:10:53.295Z,99470.80
2023-02-03T23:13:21.668Z,99471.84
2023-02-03T23:15:49.802Z,99476.46
2023-02-03T23:18:18.112Z,99480.21
2023-02-03T23:20:46.076Z,99487.02
2023-02-03T23:23:14.590Z,99482.93
2023-02-03T23:25:42.525Z,99483.81
2023-02-03T23:28:10.738Z,99491.64
2023-02-03T23:30:38.768Z,99496.09
2023-02-03T23:33:06.943Z,99506.12
2023-02-03T23:35:47.100Z,99512.42
2023-02-03T23:38:16.298Z,99522.29
2023-02-03T23:40:44.695Z,99527.55
2023-02-03T23:43:12.863Z,99537.77
2023-02-03T23:45:41.367Z,99540.50
2023-02-03T23:48:09.604Z,99537.77
2023-02-03T23:50:37.577Z,99547.98
2023-02-03T23:53:05.674Z,99555.64
2023-02-03T23:55:33.915Z,99560.74
2023-02-03T23:58:02.444Z,99569.08
